Historyczne dane pomiarowe

Dodano dane terminowe – wersja testowa.

Dane z okresu 1951-2019

Wersja bazy: 1.34 [2019-03-16, lista zmian], aktualizacja planowana na 2019-04-15

Dane meteo z obszaru Polski uzyskane na podstawie danych udostępnionych przez Instytut Meteorologii i Gospodarki Wodnej – Państwowy Instytut Badawczy.

 

Wybierz Datę:    

       

TemperaturaWilgotnośćWiatrCiśnienieOpadyŚniegCzas trwania zjawisk
 Stacja t tx tn tng RH VA  wxwx mslp ppp RRR   cm mm wxwxwxwxwxwxwx
1987-08-14 15.1 20.6 6.8--- 4.3 2.3---- 0.0------------
1987-08-13 12.2 14.5 7.0--- 2.7 3.7---- 0.1------------
1987-08-12 13.1 18.1 10.7--- 5.3 5.0---- 0.4------------
1987-08-11 12.5 17.2 11.7--- 6.0 3.3---- 3.8------------
1987-08-10 15.7 18.3 12.2--- 8.0 3.3---- 0.7------------
1987-08-09 18.1 24.1 9.7--- 3.3 1.7---- 5.0------------
1987-08-08 14.3 19.8 10.5--- 4.7 2.7---- 0.1------------
1987-08-07 14.3 19.6 9.5--- 4.7 3.7---- 0.5------------
1987-08-06 12.8 17.9 6.7--- 3.0 2.0---- 2.5------------
1987-08-05 14.2 18.5 6.4--- 2.7 2.3---- 0.0------------
1987-08-04 14.8 19.5 7.2--- 5.3 4.3---- 0.0------------
1987-08-03 14.1 19.1 11.8--- 3.7 3.3---- 2.5------------
1987-08-02 15.4 19.5 13.2--- 7.7 4.3---- 0.7------------
1987-08-01 16.9 22.1 10.1--- 5.7 2.7---- 1.9------------
1987-07-31 15.7 19.5 12.7 8.5-- 5.3 3.3---- 0.0------------
1987-07-30 17.1 23.3 11.3 8.0-- 2.0 1.3---- 1.0------------
1987-07-29 14.4 19.1 10.7 8.0-- 6.3 2.7---- 0.1------------
1987-07-28 15.2 19.9 10.9 8.6-- 7.7 4.0---- 0.1------------
1987-07-27 12.6 17.3 8.2 6.4-- 4.3 4.3---- 2.6------------
1987-07-26 14.6 20.1 12.7 10.5-- 8.0 4.3---- 7.4------------
1987-07-25 19.7 24.3 15.6 11.5-- 4.7 4.3---- 0.5------------
1987-07-24 20.3 26.5 13.4 10.0-- 2.0 2.3---- 2.5------------
1987-07-23 21.7 28.0 15.1 12.0-- 0.7 3.0---- 0.0------------
1987-07-22 20.9 27.7 14.7 11.5-- 6.7 2.0---- 0.0------------
1987-07-21 19.5 26.4 10.3 6.9-- 0.0 2.7---- 0.0------------
1987-07-20 20.8 28.0 16.6 15.5-- 3.7 4.7---- 0.0------------
1987-07-19 19.9 24.4 14.2 13.0-- 0.7 3.3---- 0.0------------
1987-07-18 19.2 22.7 17.1 16.5-- 5.3 2.7---- 0.4------------
1987-07-17 19.7 27.7 13.6 12.0-- 7.7 3.3---- 11.8------------
1987-07-16 18.9 26.0 9.1 4.4-- 1.0 3.0---- 0.0------------
1987-07-15 16.7 23.4 6.2 2.9-- 1.7 2.3---- 0.0------------
1987-07-14 15.5 19.3 10.1 5.4-- 6.0 4.7---- 0.0------------
1987-07-13 17.3 22.0 12.7 11.0-- 3.0 4.3---- 0.0------------
1987-07-12 20.0 28.5 15.6 15.0-- 5.3 3.3---- 6.5------------
1987-07-11 17.1 22.3 8.2 2.9-- 5.0 2.7---- 3.9------------
1987-07-10 15.2 19.5 9.8 5.9-- 3.7 4.0---- 0.0------------
1987-07-09 18.3 24.3 15.0 13.0-- 8.0 3.7---- 3.3------------
1987-07-08 21.7 29.7 10.3 5.9-- 0.0 3.0---- 0.0------------
1987-07-07 19.9 27.2 8.8 4.4-- 0.0 3.0---- 0.0------------
1987-07-06 17.7 23.3 6.2 1.3-- 0.7 1.7---- 0.0------------
1987-07-05 16.3 21.3 11.5 6.5-- 3.0 4.3---- 2.0------------
1987-07-04 17.5 22.7 8.1 8.7-- 3.7 3.3---- 0.0------------
1987-07-03 19.2 23.4 15.5 14.4-- 3.7 2.7---- 0.0------------
1987-07-02 19.8 27.3 17.6 15.5-- 6.3 3.3---- 0.0------------
1987-07-01 25.5 32.1 17.8 14.0-- 1.7 2.7---- 0.0------------
1987-06-30 23.9 28.1 19.3 16.0-- 0.7 1.7---- 0.0------------
1987-06-29 18.2 24.8 7.5 4.7-- 0.7 1.3---- 0.0------------
1987-06-28 17.7 24.4 11.9 7.2-- 5.0 2.0---- 0.2------------
1987-06-27 17.5 21.5 14.2 11.5-- 5.3 1.7---- 0.2------------
1987-06-26 15.7 22.3 7.1 2.7-- 0.3 2.0---- 0.0------------
1987-06-25 13.6 18.5 11.7 7.8-- 5.7 2.3---- 1.2------------
1987-06-24 17.0 21.0 10.8 6.4-- 2.7 2.0---- 7.0------------
1987-06-23 15.9 23.5 9.3 4.9-- 2.7 2.3---- 0.8------------
1987-06-22 18.8 24.5 10.7 6.1-- 3.7 1.7---- 0.0------------
1987-06-21 16.9 24.5 9.3 3.4-- 3.0 1.3---- 5.3------------
1987-06-20 15.6 22.9 4.3 0.2-- 1.3 1.3---- 0.0------------
1987-06-19 12.3 17.0 6.8 1.8-- 1.0 1.7---- 0.0------------
1987-06-18 13.2 18.2 3.6 -1.7-- 5.3 1.7---- 1.2------------
1987-06-17 12.9 15.8 8.8 6.4-- 5.3 3.3---- 0.0------------
1987-06-16 16.0 24.3 11.7 13.9-- 8.0 3.3---- 0.6------------
658.7 ms

 

Źródłem pochodzenia danych jest Instytut Meteorologii i Gospodarki Wodnej – Państwowy Instytut Badawczy. Dane Instytutu Meteorologii i Gospodarki Wodnej – Państwowego Instytutu Badawczego zostały przetworzone.

Dane źródłowe można odnaleźć na stronie https://dane.imgw.pl